| time (UTC) | temp C | wind direction | speed KPH | gust KPH | rain 1hr cm | rain 24hr cm | rain mn cm | humidity % | barometer mb |
| 20260504191840 | 27 | 170 | 4.8 | 19.3 | 0.00 | 0.00 | 0.00 | 39 | 1009.8 |
| 20260504190838 | 27 | 158 | 4.8 | 24.1 | 0.00 | 0.00 | 0.00 | 38 | 1010.0 |
| 20260504185821 | 27 | 193 | 6.4 | 24.1 | 0.00 | 0.00 | 0.00 | 38 | 1010.1 |
| 20260504184750 | 27 | 143 | 4.8 | 24.1 | 0.00 | 0.00 | 0.00 | 38 | 1010.2 |
| 20260504183810 | 27 | 180 | 4.8 | 19.3 | 0.00 | 0.00 | 0.00 | 39 | 1010.1 |
| 20260504182812 | 27 | 209 | 4.8 | 14.5 | 0.00 | 0.00 | 0.00 | 44 | 1010.3 |
| 20260504181823 | 26 | 150 | 3.2 | 17.7 | 0.00 | 0.00 | 0.00 | 43 | 1010.4 |
| 20260504180803 | 26 | 169 | 8.0 | 17.7 | 0.00 | 0.00 | 0.00 | 44 | 1010.4 |
| 20260504175806 | 26 | 191 | 4.8 | 24.1 | 0.00 | 0.00 | 0.00 | 45 | 1010.6 |
| 20260504174734 | 26 | 183 | 4.8 | 24.1 | 0.00 | 0.00 | 0.00 | 46 | 1010.7 |
| 20260504173738 | 26 | 181 | 4.8 | 20.9 | 0.00 | 0.00 | 0.00 | 46 | 1010.8 |
| 20260504172735 | 26 | 319 | 6.4 | 20.9 | 0.00 | 0.00 | 0.00 | 44 | 1011.0 |
| 20260504171800 | 26 | 169 | 6.4 | 20.9 | 0.00 | 0.00 | 0.00 | 43 | 1011.1 |
| 20260504170749 | 26 | 165 | 4.8 | 17.7 | 0.00 | 0.00 | 0.00 | 46 | 1011.2 |
| 20260504150705 | 21 | 120 | 3.2 | 16.1 | 0.00 | 0.00 | 0.00 | 58 | 1012.6 |
| 20260504140406 | 18 | 163 | 3.2 | 14.5 | 0.00 | 0.00 | 0.00 | 65 | 1012.7 |
| 20260504130447 | 16 | 154 | 1.6 | 9.7 | 0.00 | 0.00 | 0.00 | 72 | 1012.9 |
| 20260504120213 | 10 | 332 | 0.0 | 1.6 | 0.00 | 0.00 | 0.00 | 90 | 1012.7 |
| 20260504081547 | 8 | 154 | 0.0 | 0.0 | 0.00 | 0.00 | 0.00 | 91 | 1012.7 |
| 20260504080516 | 8 | 155 | 0.0 | 0.0 | 0.00 | 0.00 | 0.00 | 91 | 1012.7 |
| 20260504070333 | 8 | 310 | 0.0 | 0.0 | 0.00 | 0.00 | 0.00 | 90 | 1013.1 |
| 20260504050252 | 9 | 310 | 0.0 | 0.0 | 0.00 | 0.00 | 0.00 | 88 | 1013.8 |
| 20260504045221 | 9 | 310 | 0.0 | 0.0 | 0.00 | 0.00 | 0.00 | 88 | 1013.8 |
| 20260504044103 | 9 | 310 | 0.0 | 0.0 | 0.00 | 0.00 | 0.00 | 88 | 1013.8 |
| 20260504043041 | 9 | 310 | 0.0 | 0.0 | 0.00 | 0.00 | 0.00 | 88 | 1014.0 |
| 20260504042045 | 9 | 310 | 0.0 | 0.0 | 0.00 | 0.00 | 0.00 | 88 | 1014.0 |
| 20260504041015 | 9 | 310 | 0.0 | 0.0 | 0.00 | 0.00 | 0.00 | 87 | 1014.0 |
| 20260504035826 | 9 | 154 | 0.0 | 0.0 | 0.00 | 0.00 | 0.00 | 87 | 1014.1 |
| 20260504034844 | 9 | 310 | 0.0 | 0.0 | 0.00 | 0.00 | 0.00 | 87 | 1014.2 |
| 20260504033903 | 9 | 154 | 0.0 | 0.0 | 0.00 | 0.00 | 0.00 | 87 | 1014.2 |
| 20260504032923 | 10 | 154 | 0.0 | 0.0 | 0.00 | 0.00 | 0.00 | 87 | 1014.2 |
| 20260504031833 | 10 | 310 | 0.0 | 0.0 | 0.00 | 0.00 | 0.00 | 86 | 1014.3 |
| 20260504030800 | 10 | 310 | 0.0 | 0.0 | 0.00 | 0.00 | 0.00 | 85 | 1014.3 |
| 20260504025753 | 10 | 310 | 0.0 | 0.0 | 0.00 | 0.00 | 0.00 | 85 | 1014.3 |
| 20260504024801 | 10 | 310 | 0.0 | 0.0 | 0.00 | 0.00 | 0.00 | 84 | 1014.3 |
| 20260504023815 | 10 | 310 | 0.0 | 0.0 | 0.00 | 0.00 | 0.00 | 82 | 1014.3 |
| 20260504022751 | 11 | 310 | 0.0 | 0.0 | 0.00 | 0.00 | 0.00 | 82 | 1014.2 |
| 20260504021725 | 11 | 310 | 0.0 | 0.0 | 0.00 | 0.00 | 0.00 | 80 | 1014.3 |
| 20260504020611 | 11 | 310 | 0.0 | 0.0 | 0.00 | 0.00 | 0.00 | 79 | 1014.1 |
| 20260504015550 | 11 | 310 | 0.0 | 0.0 | 0.00 | 0.00 | 0.00 | 78 | 1014.2 |
| 20260504014541 | 12 | 310 | 0.0 | 0.0 | 0.00 | 0.00 | 0.00 | 77 | 1014.2 |
| 20260504013537 | 12 | 310 | 0.0 | 0.0 | 0.00 | 0.00 | 0.00 | 74 | 1014.1 |
| 20260504012418 | 13 | 310 | 0.0 | 0.0 | 0.00 | 0.00 | 0.00 | 73 | 1014.0 |
| 20260504011424 | 13 | 310 | 0.0 | 0.0 | 0.00 | 0.00 | 0.00 | 70 | 1014.1 |
| 20260504010321 | 14 | 310 | 0.0 | 0.0 | 0.00 | 0.00 | 0.00 | 67 | 1014.0 |
| 20260504005340 | 15 | 310 | 0.0 | 0.0 | 0.00 | 0.00 | 0.00 | 66 | 1013.9 |
| 20260504004329 | 15 | 310 | 0.0 | 0.0 | 0.00 | 0.00 | 0.00 | 63 | 1013.8 |
| 20260504003348 | 16 | 310 | 0.0 | 0.0 | 0.00 | 0.00 | 0.00 | 60 | 1013.8 |
| 20260504002358 | 17 | 310 | 0.0 | 0.0 | 0.00 | 0.00 | 0.00 | 57 | 1013.9 |
| 20260504001243 | 18 | 310 | 0.0 | 0.0 | 0.00 | 0.00 | 0.00 | 53 | 1014.0 |
| 20260504000226 | 18 | 310 | 0.0 | 0.0 | 0.00 | 0.00 | 0.00 | 50 | 1014.1 |
| 20260503235208 | 19 | 310 | 0.0 | 0.0 | 0.00 | 0.00 | 0.00 | 46 | 1014.2 |
| 20260503234100 | 20 | 165 | 0.0 | 0.0 | 0.00 | 0.00 | 0.00 | 45 | 1014.2 |
| 20260503233105 | 20 | 166 | 1.6 | 11.3 | 0.00 | 0.00 | 0.00 | 40 | 1014.1 |
| 20260503232123 | 20 | 177 | 1.6 | 8.0 | 0.00 | 0.00 | 0.00 | 40 | 1014.2 |
| 20260503231011 | 20 | 175 | 1.6 | 14.5 | 0.00 | 0.00 | 0.00 | 38 | 1014.2 |
| 20260503230005 | 21 | 196 | 3.2 | 14.5 | 0.00 | 0.00 | 0.00 | 38 | 1014.4 |
| 20260503225018 | 21 | 310 | 1.6 | 11.3 | 0.00 | 0.00 | 0.00 | 38 | 1014.5 |
| 20260503223952 | 21 | 310 | 1.6 | 11.3 | 0.00 | 0.00 | 0.00 | 37 | 1014.6 |
| 20260503222928 | 21 | 310 | 1.6 | 8.0 | 0.00 | 0.00 | 0.00 | 36 | 1014.7 |
| 20260503221926 | 22 | 310 | 1.6 | 8.0 | 0.00 | 0.00 | 0.00 | 34 | 1014.8 |
| 20260503220945 | 22 | 147 | 1.6 | 14.5 | 0.00 | 0.00 | 0.00 | 34 | 1014.9 |
| 20260503215937 | 21 | 138 | 4.8 | 14.5 | 0.00 | 0.00 | 0.00 | 35 | 1015.1 |
| 20260503214922 | 21 | 153 | 3.2 | 9.7 | 0.00 | 0.00 | 0.00 | 34 | 1015.3 |
| 20260503213937 | 21 | 310 | 4.8 | 14.5 | 0.00 | 0.00 | 0.00 | 33 | 1015.5 |
| 20260503212959 | 21 | 191 | 4.8 | 14.5 | 0.00 | 0.00 | 0.00 | 33 | 1015.6 |
| 20260503211932 | 22 | 215 | 3.2 | 16.1 | 0.00 | 0.00 | 0.00 | 33 | 1015.8 |
| 20260503210901 | 22 | 198 | 1.6 | 17.7 | 0.00 | 0.00 | 0.00 | 32 | 1016.1 |
| 20260503205915 | 22 | 84 | 3.2 | 17.7 | 0.00 | 0.00 | 0.00 | 33 | 1016.3 |
| 20260503204921 | 21 | 171 | 6.4 | 16.1 | 0.00 | 0.00 | 0.00 | 35 | 1016.5 |
| 20260503203849 | 21 | 310 | 6.4 | 17.7 | 0.00 | 0.00 | 0.00 | 34 | 1016.6 |
| 20260503202815 | 21 | 203 | 4.8 | 17.7 | 0.00 | 0.00 | 0.00 | 34 | 1016.7 |
| 20260503201829 | 21 | 103 | 4.8 | 17.7 | 0.00 | 0.00 | 0.00 | 35 | 1016.9 |
| 20260503200826 | 21 | 186 | 3.2 | 6.4 | 0.00 | 0.00 | 0.00 | 34 | 1017.1 |
| 20260503195853 | 21 | 43 | 3.2 | 11.3 | 0.00 | 0.00 | 0.00 | 35 | 1017.2 |
| 20260503194859 | 21 | 158 | 3.2 | 14.5 | 0.00 | 0.00 | 0.00 | 35 | 1017.3 |
| 20260503193842 | 20 | 140 | 6.4 | 14.5 | 0.00 | 0.00 | 0.00 | 36 | 1017.7 |
| 20260503192836 | 21 | 168 | 3.2 | 16.1 | 0.00 | 0.00 | 0.00 | 37 | 1017.8 |